sensor_id;sensor_type;location;lat;lon;timestamp;temperature;humidity
43043;DHT22;28667;50.758;6.096;2023-08-20T00:01:29;19.10;99.90
43043;DHT22;28667;50.758;6.096;2023-08-20T00:03:56;19.00;99.90
43043;DHT22;28667;50.758;6.096;2023-08-20T00:06:22;19.00;99.90
43043;DHT22;28667;50.758;6.096;2023-08-20T00:08:49;19.00;99.90
43043;DHT22;28667;50.758;6.096;2023-08-20T00:11:15;19.00;99.90
43043;DHT22;28667;50.758;6.096;2023-08-20T00:13:41;19.10;99.90
43043;DHT22;28667;50.758;6.096;2023-08-20T00:16:08;19.00;99.90
43043;DHT22;28667;50.758;6.096;2023-08-20T00:18:34;19.00;99.90
43043;DHT22;28667;50.758;6.096;2023-08-20T00:21:00;19.00;99.90
43043;DHT22;28667;50.758;6.096;2023-08-20T00:23:26;19.00;99.90
43043;DHT22;28667;50.758;6.096;2023-08-20T00:25:52;19.00;99.90
43043;DHT22;28667;50.758;6.096;2023-08-20T00:28:19;19.10;99.90
43043;DHT22;28667;50.758;6.096;2023-08-20T00:30:45;19.00;99.90
43043;DHT22;28667;50.758;6.096;2023-08-20T00:33:11;19.00;99.90
43043;DHT22;28667;50.758;6.096;2023-08-20T00:35:37;19.00;99.90
43043;DHT22;28667;50.758;6.096;2023-08-20T00:38:03;19.00;99.90
43043;DHT22;28667;50.758;6.096;2023-08-20T00:40:30;19.00;99.90
43043;DHT22;28667;50.758;6.096;2023-08-20T00:42:56;18.90;99.90
43043;DHT22;28667;50.758;6.096;2023-08-20T00:45:22;18.90;99.90
43043;DHT22;28667;50.758;6.096;2023-08-20T00:47:49;18.90;99.90
43043;DHT22;28667;50.758;6.096;2023-08-20T00:50:16;18.80;99.90
43043;DHT22;28667;50.758;6.096;2023-08-20T00:52:42;18.80;99.90
43043;DHT22;28667;50.758;6.096;2023-08-20T00:55:09;18.80;99.90
43043;DHT22;28667;50.758;6.096;2023-08-20T00:57:39;18.80;99.90
43043;DHT22;28667;50.758;6.096;2023-08-20T01:00:06;18.80;99.90
43043;DHT22;28667;50.758;6.096;2023-08-20T01:02:35;18.80;99.90
43043;DHT22;28667;50.758;6.096;2023-08-20T01:05:03;18.80;99.90
43043;DHT22;28667;50.758;6.096;2023-08-20T01:07:43;18.80;99.90
43043;DHT22;28667;50.758;6.096;2023-08-20T01:10:49;18.70;99.90
43043;DHT22;28667;50.758;6.096;2023-08-20T01:13:11;18.80;99.90
43043;DHT22;28667;50.758;6.096;2023-08-20T01:15:37;18.70;99.90
43043;DHT22;28667;50.758;6.096;2023-08-20T01:18:03;18.80;99.90
43043;DHT22;28667;50.758;6.096;2023-08-20T01:20:35;18.80;99.90
43043;DHT22;28667;50.758;6.096;2023-08-20T01:28:24;18.80;99.90
43043;DHT22;28667;50.758;6.096;2023-08-20T01:30:51;18.70;99.90
43043;DHT22;28667;50.758;6.096;2023-08-20T01:33:19;18.70;99.90
43043;DHT22;28667;50.758;6.096;2023-08-20T01:35:45;18.70;99.90
43043;DHT22;28667;50.758;6.096;2023-08-20T01:38:14;18.70;99.90
43043;DHT22;28667;50.758;6.096;2023-08-20T01:40:40;18.70;99.90
43043;DHT22;28667;50.758;6.096;2023-08-20T01:43:06;18.60;99.90
43043;DHT22;28667;50.758;6.096;2023-08-20T01:45:32;18.60;99.90
43043;DHT22;28667;50.758;6.096;2023-08-20T01:47:58;18.60;99.90
43043;DHT22;28667;50.758;6.096;2023-08-20T01:50:24;18.60;99.90
43043;DHT22;28667;50.758;6.096;2023-08-20T01:52:49;18.50;99.90
43043;DHT22;28667;50.758;6.096;2023-08-20T01:55:15;18.50;99.90
43043;DHT22;28667;50.758;6.096;2023-08-20T01:57:41;18.50;99.90
43043;DHT22;28667;50.758;6.096;2023-08-20T02:00:07;18.40;99.90
43043;DHT22;28667;50.758;6.096;2023-08-20T02:02:39;18.40;99.90
43043;DHT22;28667;50.758;6.096;2023-08-20T02:05:05;18.40;99.90
43043;DHT22;28667;50.758;6.096;2023-08-20T02:07:31;18.40;99.90
43043;DHT22;28667;50.758;6.096;2023-08-20T02:09:59;18.40;99.90
43043;DHT22;28667;50.758;6.096;2023-08-20T02:12:25;18.40;99.90
43043;DHT22;28667;50.758;6.096;2023-08-20T02:14:52;18.40;99.90
43043;DHT22;28667;50.758;6.096;2023-08-20T02:17:21;18.40;99.90
43043;DHT22;28667;50.758;6.096;2023-08-20T02:19:48;18.40;99.90
43043;DHT22;28667;50.758;6.096;2023-08-20T02:22:13;18.40;99.90
43043;DHT22;28667;50.758;6.096;2023-08-20T02:24:39;18.40;99.90
43043;DHT22;28667;50.758;6.096;2023-08-20T02:27:05;18.40;99.90
43043;DHT22;28667;50.758;6.096;2023-08-20T02:29:30;18.50;99.90
43043;DHT22;28667;50.758;6.096;2023-08-20T02:31:56;18.40;99.90
43043;DHT22;28667;50.758;6.096;2023-08-20T02:34:22;18.50;99.90
43043;DHT22;28667;50.758;6.096;2023-08-20T02:36:48;18.50;99.90
43043;DHT22;28667;50.758;6.096;2023-08-20T02:39:14;18.40;99.90
43043;DHT22;28667;50.758;6.096;2023-08-20T02:41:41;18.50;99.90
43043;DHT22;28667;50.758;6.096;2023-08-20T02:44:08;18.40;99.90
43043;DHT22;28667;50.758;6.096;2023-08-20T02:46:34;18.40;99.90
43043;DHT22;28667;50.758;6.096;2023-08-20T02:49:00;18.40;99.90
43043;DHT22;28667;50.758;6.096;2023-08-20T02:51:27;18.40;99.90
43043;DHT22;28667;50.758;6.096;2023-08-20T02:53:53;18.30;99.90
43043;DHT22;28667;50.758;6.096;2023-08-20T02:56:19;18.30;99.90
43043;DHT22;28667;50.758;6.096;2023-08-20T02:58:44;18.30;99.90
43043;DHT22;28667;50.758;6.096;2023-08-20T03:01:18;18.30;99.90
43043;DHT22;28667;50.758;6.096;2023-08-20T03:03:45;18.30;99.90
43043;DHT22;28667;50.758;6.096;2023-08-20T03:06:10;18.30;99.90
43043;DHT22;28667;50.758;6.096;2023-08-20T03:08:36;18.30;99.90
43043;DHT22;28667;50.758;6.096;2023-08-20T03:11:02;18.20;99.90
43043;DHT22;28667;50.758;6.096;2023-08-20T03:13:28;18.20;99.90
43043;DHT22;28667;50.758;6.096;2023-08-20T03:15:54;18.20;99.90
43043;DHT22;28667;50.758;6.096;2023-08-20T03:18:20;18.20;99.90
43043;DHT22;28667;50.758;6.096;2023-08-20T03:20:45;18.30;99.90
43043;DHT22;28667;50.758;6.096;2023-08-20T03:23:11;18.30;99.90
43043;DHT22;28667;50.758;6.096;2023-08-20T03:25:38;18.30;99.90
43043;DHT22;28667;50.758;6.096;2023-08-20T03:28:04;18.30;99.90
43043;DHT22;28667;50.758;6.096;2023-08-20T03:30:31;18.30;99.90
43043;DHT22;28667;50.758;6.096;2023-08-20T03:32:57;18.30;99.90
43043;DHT22;28667;50.758;6.096;2023-08-20T03:35:24;18.30;99.90
43043;DHT22;28667;50.758;6.096;2023-08-20T03:37:50;18.30;99.90
43043;DHT22;28667;50.758;6.096;2023-08-20T03:40:15;18.30;99.90
43043;DHT22;28667;50.758;6.096;2023-08-20T03:42:42;18.30;99.90
43043;DHT22;28667;50.758;6.096;2023-08-20T03:45:08;18.30;99.90
43043;DHT22;28667;50.758;6.096;2023-08-20T03:47:34;18.30;99.90
43043;DHT22;28667;50.758;6.096;2023-08-20T03:50:02;18.30;99.90
43043;DHT22;28667;50.758;6.096;2023-08-20T03:52:29;18.30;99.90
43043;DHT22;28667;50.758;6.096;2023-08-20T03:54:54;18.30;99.90
43043;DHT22;28667;50.758;6.096;2023-08-20T03:57:20;18.30;99.90
43043;DHT22;28667;50.758;6.096;2023-08-20T03:59:46;18.30;99.90
43043;DHT22;28667;50.758;6.096;2023-08-20T04:02:13;18.20;99.90
43043;DHT22;28667;50.758;6.096;2023-08-20T04:04:40;18.20;99.90
43043;DHT22;28667;50.758;6.096;2023-08-20T04:07:06;18.20;99.90
43043;DHT22;28667;50.758;6.096;2023-08-20T04:09:33;18.20;99.90
43043;DHT22;28667;50.758;6.096;2023-08-20T04:11:59;18.20;99.90
43043;DHT22;28667;50.758;6.096;2023-08-20T04:14:25;18.20;99.90
43043;DHT22;28667;50.758;6.096;2023-08-20T04:16:51;18.10;99.90
43043;DHT22;28667;50.758;6.096;2023-08-20T04:19:17;18.10;99.90
43043;DHT22;28667;50.758;6.096;2023-08-20T04:21:45;18.10;99.90
43043;DHT22;28667;50.758;6.096;2023-08-20T04:24:11;18.10;99.90
43043;DHT22;28667;50.758;6.096;2023-08-20T04:26:38;18.00;99.90
43043;DHT22;28667;50.758;6.096;2023-08-20T04:29:04;18.10;99.90
43043;DHT22;28667;50.758;6.096;2023-08-20T04:31:31;18.00;99.90
43043;DHT22;28667;50.758;6.096;2023-08-20T04:34:04;18.00;99.90
43043;DHT22;28667;50.758;6.096;2023-08-20T04:36:38;18.00;99.90
43043;DHT22;28667;50.758;6.096;2023-08-20T04:39:04;18.00;99.90
43043;DHT22;28667;50.758;6.096;2023-08-20T04:41:31;18.00;99.90
43043;DHT22;28667;50.758;6.096;2023-08-20T04:43:57;18.00;99.90
43043;DHT22;28667;50.758;6.096;2023-08-20T04:46:23;18.00;99.90
43043;DHT22;28667;50.758;6.096;2023-08-20T04:48:49;18.00;99.90
43043;DHT22;28667;50.758;6.096;2023-08-20T04:51:16;17.90;99.90
43043;DHT22;28667;50.758;6.096;2023-08-20T04:53:41;18.00;99.90
43043;DHT22;28667;50.758;6.096;2023-08-20T04:56:08;18.00;99.90
43043;DHT22;28667;50.758;6.096;2023-08-20T04:58:34;18.00;99.90
43043;DHT22;28667;50.758;6.096;2023-08-20T05:01:00;18.00;99.90
43043;DHT22;28667;50.758;6.096;2023-08-20T05:03:27;18.00;99.90
43043;DHT22;28667;50.758;6.096;2023-08-20T05:05:53;18.00;99.90
43043;DHT22;28667;50.758;6.096;2023-08-20T05:08:19;18.00;99.90
43043;DHT22;28667;50.758;6.096;2023-08-20T05:10:44;18.00;99.90
43043;DHT22;28667;50.758;6.096;2023-08-20T05:13:11;18.00;99.90
43043;DHT22;28667;50.758;6.096;2023-08-20T05:15:36;18.00;99.90
43043;DHT22;28667;50.758;6.096;2023-08-20T05:18:02;18.00;99.90
43043;DHT22;28667;50.758;6.096;2023-08-20T05:20:28;18.00;99.90
43043;DHT22;28667;50.758;6.096;2023-08-20T05:22:54;18.00;99.90
43043;DHT22;28667;50.758;6.096;2023-08-20T05:25:19;18.10;99.90
43043;DHT22;28667;50.758;6.096;2023-08-20T05:27:49;18.10;99.90
43043;DHT22;28667;50.758;6.096;2023-08-20T05:30:16;18.20;99.90
43043;DHT22;28667;50.758;6.096;2023-08-20T05:32:41;18.30;99.90
43043;DHT22;28667;50.758;6.096;2023-08-20T05:35:07;18.30;99.90
43043;DHT22;28667;50.758;6.096;2023-08-20T05:37:33;18.40;99.90
43043;DHT22;28667;50.758;6.096;2023-08-20T05:39:59;18.40;99.90
43043;DHT22;28667;50.758;6.096;2023-08-20T05:42:25;18.50;99.90
43043;DHT22;28667;50.758;6.096;2023-08-20T05:44:56;18.50;99.90
43043;DHT22;28667;50.758;6.096;2023-08-20T05:47:26;18.60;99.90
43043;DHT22;28667;50.758;6.096;2023-08-20T05:49:51;18.60;99.90
43043;DHT22;28667;50.758;6.096;2023-08-20T05:52:17;18.60;99.90
43043;DHT22;28667;50.758;6.096;2023-08-20T05:54:43;18.70;99.90
43043;DHT22;28667;50.758;6.096;2023-08-20T05:57:09;18.70;99.90
43043;DHT22;28667;50.758;6.096;2023-08-20T05:59:35;18.70;99.90
43043;DHT22;28667;50.758;6.096;2023-08-20T06:02:02;18.70;99.90
43043;DHT22;28667;50.758;6.096;2023-08-20T06:04:28;18.80;99.90
43043;DHT22;28667;50.758;6.096;2023-08-20T06:06:53;18.80;99.90
43043;DHT22;28667;50.758;6.096;2023-08-20T06:09:19;18.90;99.90
43043;DHT22;28667;50.758;6.096;2023-08-20T06:11:45;18.90;99.90
43043;DHT22;28667;50.758;6.096;2023-08-20T06:14:11;18.90;99.90
43043;DHT22;28667;50.758;6.096;2023-08-20T06:16:36;18.90;99.90
43043;DHT22;28667;50.758;6.096;2023-08-20T06:19:02;18.90;99.90
43043;DHT22;28667;50.758;6.096;2023-08-20T06:21:28;19.00;99.90
43043;DHT22;28667;50.758;6.096;2023-08-20T06:23:54;19.00;99.90
43043;DHT22;28667;50.758;6.096;2023-08-20T06:26:19;19.00;99.90
43043;DHT22;28667;50.758;6.096;2023-08-20T06:28:46;19.00;99.90
43043;DHT22;28667;50.758;6.096;2023-08-20T06:31:11;19.10;99.90
43043;DHT22;28667;50.758;6.096;2023-08-20T06:33:37;19.10;99.90
43043;DHT22;28667;50.758;6.096;2023-08-20T06:36:04;19.20;99.90
43043;DHT22;28667;50.758;6.096;2023-08-20T06:38:29;19.20;99.90
43043;DHT22;28667;50.758;6.096;2023-08-20T06:40:56;19.30;99.90
43043;DHT22;28667;50.758;6.096;2023-08-20T06:43:21;19.40;99.90
43043;DHT22;28667;50.758;6.096;2023-08-20T06:45:47;19.40;99.90
43043;DHT22;28667;50.758;6.096;2023-08-20T06:48:13;19.50;99.90
43043;DHT22;28667;50.758;6.096;2023-08-20T06:50:40;19.50;99.90
43043;DHT22;28667;50.758;6.096;2023-08-20T06:53:06;19.50;99.90
43043;DHT22;28667;50.758;6.096;2023-08-20T06:55:32;19.60;99.90
43043;DHT22;28667;50.758;6.096;2023-08-20T06:57:58;19.60;99.90
43043;DHT22;28667;50.758;6.096;2023-08-20T07:00:23;19.60;99.90
43043;DHT22;28667;50.758;6.096;2023-08-20T07:02:49;19.70;99.90
43043;DHT22;28667;50.758;6.096;2023-08-20T07:05:15;19.70;99.90
43043;DHT22;28667;50.758;6.096;2023-08-20T07:07:41;19.80;99.90
43043;DHT22;28667;50.758;6.096;2023-08-20T07:10:07;19.80;99.90
43043;DHT22;28667;50.758;6.096;2023-08-20T07:12:33;19.90;99.90
43043;DHT22;28667;50.758;6.096;2023-08-20T07:14:58;19.90;99.90
43043;DHT22;28667;50.758;6.096;2023-08-20T07:17:24;19.90;99.90
43043;DHT22;28667;50.758;6.096;2023-08-20T07:19:50;20.00;99.90
43043;DHT22;28667;50.758;6.096;2023-08-20T07:22:15;20.00;99.90
43043;DHT22;28667;50.758;6.096;2023-08-20T07:24:41;20.00;99.90
43043;DHT22;28667;50.758;6.096;2023-08-20T07:27:07;20.10;99.90
43043;DHT22;28667;50.758;6.096;2023-08-20T07:29:37;20.10;99.90
43043;DHT22;28667;50.758;6.096;2023-08-20T07:32:03;20.10;99.90
43043;DHT22;28667;50.758;6.096;2023-08-20T07:34:29;20.10;99.90
43043;DHT22;28667;50.758;6.096;2023-08-20T07:37:00;20.20;99.90
43043;DHT22;28667;50.758;6.096;2023-08-20T07:39:26;20.20;99.90
43043;DHT22;28667;50.758;6.096;2023-08-20T07:41:51;20.30;99.90
43043;DHT22;28667;50.758;6.096;2023-08-20T07:44:17;20.30;99.90
43043;DHT22;28667;50.758;6.096;2023-08-20T07:46:43;20.40;99.90
43043;DHT22;28667;50.758;6.096;2023-08-20T07:49:09;20.40;99.90
43043;DHT22;28667;50.758;6.096;2023-08-20T07:51:35;20.50;99.90
43043;DHT22;28667;50.758;6.096;2023-08-20T07:54:00;20.50;99.90
43043;DHT22;28667;50.758;6.096;2023-08-20T07:56:26;20.60;99.90
43043;DHT22;28667;50.758;6.096;2023-08-20T07:58:52;20.60;99.90
43043;DHT22;28667;50.758;6.096;2023-08-20T08:01:17;20.70;99.90
43043;DHT22;28667;50.758;6.096;2023-08-20T08:03:43;20.80;99.90
43043;DHT22;28667;50.758;6.096;2023-08-20T08:06:09;20.80;99.90
43043;DHT22;28667;50.758;6.096;2023-08-20T08:08:35;20.90;99.90
43043;DHT22;28667;50.758;6.096;2023-08-20T08:11:00;20.90;99.90
43043;DHT22;28667;50.758;6.096;2023-08-20T08:13:26;21.00;99.90
43043;DHT22;28667;50.758;6.096;2023-08-20T08:15:52;21.10;99.90
43043;DHT22;28667;50.758;6.096;2023-08-20T08:18:19;21.10;99.90
43043;DHT22;28667;50.758;6.096;2023-08-20T08:20:45;21.20;99.90
43043;DHT22;28667;50.758;6.096;2023-08-20T08:23:11;21.30;99.90
43043;DHT22;28667;50.758;6.096;2023-08-20T08:25:37;21.30;99.90
43043;DHT22;28667;50.758;6.096;2023-08-20T08:28:04;21.40;99.90
43043;DHT22;28667;50.758;6.096;2023-08-20T08:30:30;21.50;99.90
43043;DHT22;28667;50.758;6.096;2023-08-20T08:32:56;21.50;99.90
43043;DHT22;28667;50.758;6.096;2023-08-20T08:35:22;21.60;99.90
43043;DHT22;28667;50.758;6.096;2023-08-20T08:37:48;21.70;99.90
43043;DHT22;28667;50.758;6.096;2023-08-20T08:40:13;21.70;99.90
43043;DHT22;28667;50.758;6.096;2023-08-20T08:42:40;21.70;99.90
43043;DHT22;28667;50.758;6.096;2023-08-20T08:45:07;21.80;99.90
43043;DHT22;28667;50.758;6.096;2023-08-20T08:47:34;21.80;99.90
43043;DHT22;28667;50.758;6.096;2023-08-20T08:50:01;21.90;99.90
43043;DHT22;28667;50.758;6.096;2023-08-20T08:52:28;21.90;99.90
43043;DHT22;28667;50.758;6.096;2023-08-20T08:54:53;22.00;99.90
43043;DHT22;28667;50.758;6.096;2023-08-20T08:57:19;22.10;99.90
43043;DHT22;28667;50.758;6.096;2023-08-20T08:59:45;22.10;99.90
43043;DHT22;28667;50.758;6.096;2023-08-20T09:02:12;22.20;99.90
43043;DHT22;28667;50.758;6.096;2023-08-20T09:04:42;22.30;99.90
43043;DHT22;28667;50.758;6.096;2023-08-20T09:07:15;22.40;99.90
43043;DHT22;28667;50.758;6.096;2023-08-20T09:09:44;22.50;99.90
43043;DHT22;28667;50.758;6.096;2023-08-20T09:12:17;22.60;99.90
43043;DHT22;28667;50.758;6.096;2023-08-20T09:14:48;22.80;99.90
43043;DHT22;28667;50.758;6.096;2023-08-20T09:17:14;22.90;99.90
43043;DHT22;28667;50.758;6.096;2023-08-20T09:19:40;23.00;99.90
43043;DHT22;28667;50.758;6.096;2023-08-20T09:22:07;23.10;99.90
43043;DHT22;28667;50.758;6.096;2023-08-20T09:24:38;23.20;99.90
43043;DHT22;28667;50.758;6.096;2023-08-20T09:27:04;23.40;99.90
43043;DHT22;28667;50.758;6.096;2023-08-20T09:29:53;23.60;99.90
43043;DHT22;28667;50.758;6.096;2023-08-20T09:32:22;23.70;99.90
43043;DHT22;28667;50.758;6.096;2023-08-20T09:34:52;23.90;99.90
43043;DHT22;28667;50.758;6.096;2023-08-20T09:37:22;24.10;99.90
43043;DHT22;28667;50.758;6.096;2023-08-20T09:39:48;24.20;99.90
43043;DHT22;28667;50.758;6.096;2023-08-20T09:42:15;24.20;99.90
43043;DHT22;28667;50.758;6.096;2023-08-20T09:44:43;24.20;99.90
43043;DHT22;28667;50.758;6.096;2023-08-20T09:47:14;24.20;99.90
43043;DHT22;28667;50.758;6.096;2023-08-20T09:49:42;24.10;99.90
43043;DHT22;28667;50.758;6.096;2023-08-20T09:52:09;24.20;99.90
43043;DHT22;28667;50.758;6.096;2023-08-20T09:54:50;24.20;99.90
43043;DHT22;28667;50.758;6.096;2023-08-20T09:57:28;24.40;99.90
43043;DHT22;28667;50.758;6.096;2023-08-20T09:59:57;24.50;99.90
43043;DHT22;28667;50.758;6.096;2023-08-20T10:02:24;24.60;99.90
43043;DHT22;28667;50.758;6.096;2023-08-20T10:04:50;24.80;99.90
43043;DHT22;28667;50.758;6.096;2023-08-20T10:07:17;25.00;99.90
43043;DHT22;28667;50.758;6.096;2023-08-20T10:09:44;25.20;99.90
43043;DHT22;28667;50.758;6.096;2023-08-20T10:12:14;25.40;99.90
43043;DHT22;28667;50.758;6.096;2023-08-20T10:14:41;25.70;99.90
43043;DHT22;28667;50.758;6.096;2023-08-20T10:17:08;25.80;99.90
43043;DHT22;28667;50.758;6.096;2023-08-20T10:19:36;25.90;99.90
43043;DHT22;28667;50.758;6.096;2023-08-20T10:22:03;25.80;99.90
43043;DHT22;28667;50.758;6.096;2023-08-20T10:24:29;25.90;99.90
43043;DHT22;28667;50.758;6.096;2023-08-20T10:27:11;25.90;99.90
43043;DHT22;28667;50.758;6.096;2023-08-20T10:29:38;25.90;99.90
43043;DHT22;28667;50.758;6.096;2023-08-20T10:32:11;26.00;99.90
43043;DHT22;28667;50.758;6.096;2023-08-20T10:34:39;26.10;99.90
43043;DHT22;28667;50.758;6.096;2023-08-20T10:37:12;26.20;99.90
43043;DHT22;28667;50.758;6.096;2023-08-20T10:39:38;26.20;99.90
43043;DHT22;28667;50.758;6.096;2023-08-20T10:45:06;26.30;99.90
43043;DHT22;28667;50.758;6.096;2023-08-20T10:50:08;26.20;99.90
43043;DHT22;28667;50.758;6.096;2023-08-20T10:52:40;26.30;99.90
43043;DHT22;28667;50.758;6.096;2023-08-20T10:55:07;26.20;99.90
43043;DHT22;28667;50.758;6.096;2023-08-20T10:57:36;26.20;99.90
43043;DHT22;28667;50.758;6.096;2023-08-20T11:00:06;26.10;99.90
43043;DHT22;28667;50.758;6.096;2023-08-20T11:02:41;26.00;99.90
43043;DHT22;28667;50.758;6.096;2023-08-20T11:05:17;25.90;99.90
43043;DHT22;28667;50.758;6.096;2023-08-20T11:07:46;25.80;99.90
43043;DHT22;28667;50.758;6.096;2023-08-20T11:10:17;25.80;99.90
43043;DHT22;28667;50.758;6.096;2023-08-20T11:12:45;25.80;99.90
43043;DHT22;28667;50.758;6.096;2023-08-20T11:15:11;25.90;99.90
43043;DHT22;28667;50.758;6.096;2023-08-20T11:17:47;26.10;99.90
43043;DHT22;28667;50.758;6.096;2023-08-20T11:20:14;26.20;99.90
43043;DHT22;28667;50.758;6.096;2023-08-20T11:22:40;26.40;99.90
43043;DHT22;28667;50.758;6.096;2023-08-20T11:25:10;26.60;99.90
43043;DHT22;28667;50.758;6.096;2023-08-20T11:27:40;26.60;99.90
43043;DHT22;28667;50.758;6.096;2023-08-20T11:30:07;26.70;99.90
43043;DHT22;28667;50.758;6.096;2023-08-20T11:32:33;26.70;99.90
43043;DHT22;28667;50.758;6.096;2023-08-20T11:35:00;26.80;99.90
43043;DHT22;28667;50.758;6.096;2023-08-20T11:37:27;26.90;99.90
43043;DHT22;28667;50.758;6.096;2023-08-20T11:39:52;26.90;99.90
43043;DHT22;28667;50.758;6.096;2023-08-20T11:42:19;26.90;99.90
43043;DHT22;28667;50.758;6.096;2023-08-20T11:44:46;27.00;99.90
43043;DHT22;28667;50.758;6.096;2023-08-20T11:47:18;27.10;99.90
43043;DHT22;28667;50.758;6.096;2023-08-20T11:49:44;27.30;99.90
43043;DHT22;28667;50.758;6.096;2023-08-20T11:52:11;27.40;99.90
43043;DHT22;28667;50.758;6.096;2023-08-20T11:54:38;27.70;99.90
43043;DHT22;28667;50.758;6.096;2023-08-20T11:57:05;27.90;99.90
43043;DHT22;28667;50.758;6.096;2023-08-20T11:59:32;27.90;99.90
43043;DHT22;28667;50.758;6.096;2023-08-20T12:02:00;28.00;99.90
43043;DHT22;28667;50.758;6.096;2023-08-20T12:04:27;28.00;99.90
43043;DHT22;28667;50.758;6.096;2023-08-20T12:07:09;28.10;99.90
43043;DHT22;28667;50.758;6.096;2023-08-20T12:09:35;28.20;99.90
43043;DHT22;28667;50.758;6.096;2023-08-20T12:12:02;28.30;99.90
43043;DHT22;28667;50.758;6.096;2023-08-20T12:14:28;28.40;99.90
43043;DHT22;28667;50.758;6.096;2023-08-20T12:16:54;28.50;99.90
43043;DHT22;28667;50.758;6.096;2023-08-20T12:19:21;28.50;99.90
43043;DHT22;28667;50.758;6.096;2023-08-20T12:21:47;28.50;99.90
43043;DHT22;28667;50.758;6.096;2023-08-20T12:24:12;28.50;99.90
43043;DHT22;28667;50.758;6.096;2023-08-20T12:26:39;28.60;99.90
43043;DHT22;28667;50.758;6.096;2023-08-20T12:29:05;28.60;99.90
43043;DHT22;28667;50.758;6.096;2023-08-20T12:31:32;28.60;99.90
43043;DHT22;28667;50.758;6.096;2023-08-20T12:33:58;28.60;99.90
43043;DHT22;28667;50.758;6.096;2023-08-20T12:36:24;28.50;99.90
43043;DHT22;28667;50.758;6.096;2023-08-20T12:38:50;28.40;99.90
43043;DHT22;28667;50.758;6.096;2023-08-20T12:41:16;28.50;99.90
43043;DHT22;28667;50.758;6.096;2023-08-20T12:43:42;28.50;99.90
43043;DHT22;28667;50.758;6.096;2023-08-20T12:46:07;28.40;99.90
43043;DHT22;28667;50.758;6.096;2023-08-20T12:48:33;28.30;99.90
43043;DHT22;28667;50.758;6.096;2023-08-20T12:50:59;28.30;99.60
43043;DHT22;28667;50.758;6.096;2023-08-20T12:53:25;28.20;99.90
43043;DHT22;28667;50.758;6.096;2023-08-20T12:55:50;28.30;99.90
43043;DHT22;28667;50.758;6.096;2023-08-20T12:58:16;28.60;99.90
43043;DHT22;28667;50.758;6.096;2023-08-20T13:00:42;28.80;99.90
43043;DHT22;28667;50.758;6.096;2023-08-20T13:03:08;29.00;99.90
43043;DHT22;28667;50.758;6.096;2023-08-20T13:05:34;29.20;99.70
43043;DHT22;28667;50.758;6.096;2023-08-20T13:08:00;29.50;96.70
43043;DHT22;28667;50.758;6.096;2023-08-20T13:10:26;29.60;95.80
43043;DHT22;28667;50.758;6.096;2023-08-20T13:12:53;29.70;96.10
43043;DHT22;28667;50.758;6.096;2023-08-20T13:15:22;29.60;96.40
43043;DHT22;28667;50.758;6.096;2023-08-20T13:17:49;29.50;96.50
43043;DHT22;28667;50.758;6.096;2023-08-20T13:20:16;29.30;96.50
43043;DHT22;28667;50.758;6.096;2023-08-20T13:22:48;29.10;96.70
43043;DHT22;28667;50.758;6.096;2023-08-20T13:25:14;29.00;97.00
43043;DHT22;28667;50.758;6.096;2023-08-20T13:27:40;28.90;96.90
43043;DHT22;28667;50.758;6.096;2023-08-20T13:30:07;28.90;96.80
43043;DHT22;28667;50.758;6.096;2023-08-20T13:32:34;28.80;97.20
43043;DHT22;28667;50.758;6.096;2023-08-20T13:35:00;28.90;96.40
43043;DHT22;28667;50.758;6.096;2023-08-20T13:37:28;28.80;97.00
43043;DHT22;28667;50.758;6.096;2023-08-20T13:39:54;28.70;97.20
43043;DHT22;28667;50.758;6.096;2023-08-20T13:42:20;28.50;97.40
43043;DHT22;28667;50.758;6.096;2023-08-20T13:44:46;28.40;97.20
43043;DHT22;28667;50.758;6.096;2023-08-20T13:47:11;28.30;97.30
43043;DHT22;28667;50.758;6.096;2023-08-20T13:49:37;28.20;97.80
43043;DHT22;28667;50.758;6.096;2023-08-20T13:52:03;28.30;97.50
43043;DHT22;28667;50.758;6.096;2023-08-20T13:54:28;28.40;97.00
43043;DHT22;28667;50.758;6.096;2023-08-20T13:56:54;28.50;97.10
43043;DHT22;28667;50.758;6.096;2023-08-20T13:59:20;28.50;96.90
43043;DHT22;28667;50.758;6.096;2023-08-20T14:01:45;28.50;96.50
43043;DHT22;28667;50.758;6.096;2023-08-20T14:04:11;28.50;96.80
43043;DHT22;28667;50.758;6.096;2023-08-20T14:06:37;28.60;96.60
43043;DHT22;28667;50.758;6.096;2023-08-20T14:09:03;28.70;96.60
43043;DHT22;28667;50.758;6.096;2023-08-20T14:11:30;28.70;96.00
43043;DHT22;28667;50.758;6.096;2023-08-20T14:13:56;28.70;95.20
43043;DHT22;28667;50.758;6.096;2023-08-20T14:16:21;28.80;95.90
43043;DHT22;28667;50.758;6.096;2023-08-20T14:18:47;28.80;96.20
43043;DHT22;28667;50.758;6.096;2023-08-20T14:21:13;28.80;96.50
43043;DHT22;28667;50.758;6.096;2023-08-20T14:23:39;28.90;96.80
43043;DHT22;28667;50.758;6.096;2023-08-20T14:26:06;29.10;96.00
43043;DHT22;28667;50.758;6.096;2023-08-20T14:28:33;29.30;95.70
43043;DHT22;28667;50.758;6.096;2023-08-20T14:31:02;29.30;95.70
43043;DHT22;28667;50.758;6.096;2023-08-20T14:33:32;29.40;95.50
43043;DHT22;28667;50.758;6.096;2023-08-20T14:35:58;29.50;95.10
43043;DHT22;28667;50.758;6.096;2023-08-20T14:38:23;29.40;95.20
43043;DHT22;28667;50.758;6.096;2023-08-20T14:40:49;29.40;95.40
43043;DHT22;28667;50.758;6.096;2023-08-20T14:43:15;29.50;95.40
43043;DHT22;28667;50.758;6.096;2023-08-20T14:45:41;29.50;95.60
43043;DHT22;28667;50.758;6.096;2023-08-20T14:48:06;29.60;95.60
43043;DHT22;28667;50.758;6.096;2023-08-20T14:50:32;29.60;95.30
43043;DHT22;28667;50.758;6.096;2023-08-20T14:52:59;29.70;95.30
43043;DHT22;28667;50.758;6.096;2023-08-20T14:55:24;29.70;95.50
43043;DHT22;28667;50.758;6.096;2023-08-20T14:57:50;29.70;94.50
43043;DHT22;28667;50.758;6.096;2023-08-20T15:00:16;29.90;94.00
43043;DHT22;28667;50.758;6.096;2023-08-20T15:02:47;30.00;93.60
43043;DHT22;28667;50.758;6.096;2023-08-20T15:05:13;30.10;94.00
43043;DHT22;28667;50.758;6.096;2023-08-20T15:07:39;30.10;93.70
43043;DHT22;28667;50.758;6.096;2023-08-20T15:10:05;30.10;93.80
43043;DHT22;28667;50.758;6.096;2023-08-20T15:12:35;30.10;93.70
43043;DHT22;28667;50.758;6.096;2023-08-20T15:15:04;30.10;93.60
43043;DHT22;28667;50.758;6.096;2023-08-20T15:17:31;30.20;93.80
43043;DHT22;28667;50.758;6.096;2023-08-20T15:19:58;30.30;93.50
43043;DHT22;28667;50.758;6.096;2023-08-20T15:22:23;30.40;93.60
43043;DHT22;28667;50.758;6.096;2023-08-20T15:24:49;30.30;93.60
43043;DHT22;28667;50.758;6.096;2023-08-20T15:27:17;30.50;93.90
43043;DHT22;28667;50.758;6.096;2023-08-20T15:29:43;30.60;93.20
43043;DHT22;28667;50.758;6.096;2023-08-20T15:32:09;30.60;93.50
43043;DHT22;28667;50.758;6.096;2023-08-20T15:34:35;30.60;94.00
43043;DHT22;28667;50.758;6.096;2023-08-20T15:37:00;30.60;93.80
43043;DHT22;28667;50.758;6.096;2023-08-20T15:39:26;30.80;93.40